Cottonwood Shores, Texas
Current Conditions -  °F | °C
As of 4:55 AM on Monday 20 Oct 2014 (Local Time) from KDZB Reporting Station
Broken Clouds Broken Clouds  
Wind Chill: 60°   Ceiling: 3100
Heat Index: 60°   Visibility: 7mi
Dew Point: 60°   Wind: 0mph
Humidity: 100%   Direction: NA
Pressure: 30.04"   Gusts: NA
Location:  30.5928°N, 98.3476°W
Report Text: KDZB 200955Z AUTO 00000KT 7SM SCT021 SCT026 BKN031 15/15 A3004 RMK AO2 T01540154
Loading
Personal Weather Stations






























Interactive Weather Map
Tropical Storm Tracking
New forecast layout! Learn more

10-Day Weather Forecast

Advertisements
Track Severe Weather on mobile